Time;durP1;ratioP1;P1;durP2;ratioP2;P2;SDS_P1;SDS_P2;PMS_P1;PMS_P2;Temp;Humidity;BMP_temperature;BMP_pressure;BME280_temperature;BME280_humidity;BME280_pressure;Samples;Min_cycle;Max_cycle;Signal;HPM_P1;HPM_P2
2022/06/26 00:01:10;;;;;;;0.40;0.40;;;;;;;30.63;37.36;98804.48;1812549;77;35286;-42
2022/06/26 00:03:59;;;;;;;0.40;0.40;;;;;;;30.60;37.39;98799.54;1761344;79;28444;-42
2022/06/26 00:06:47;;;;;;;0.40;0.40;;;;;;;30.61;37.41;98799.25;1801965;77;28190;-46
2022/06/26 00:09:36;;;;;;;0.50;0.50;;;;;;;30.59;37.39;98804.29;1786244;78;28230;-44
2022/06/26 00:12:24;;;;;;;0.47;0.47;;;;;;;30.60;37.41;98804.53;1831595;77;28275;-43
2022/06/26 00:15:12;;;;;;;0.40;0.40;;;;;;;30.59;37.43;98808.45;1827398;76;28372;-45
2022/06/26 00:18:01;;;;;;;0.50;0.50;;;;;;;30.59;37.41;98807.62;1833630;77;28162;-42
2022/06/26 00:20:49;;;;;;;0.50;0.50;;;;;;;30.60;37.42;98806.47;1796246;76;28336;-47
2022/06/26 00:23:38;;;;;;;0.50;0.50;;;;;;;30.58;37.42;98811.50;1839676;77;28170;-46
2022/06/26 00:26:28;;;;;;;0.70;0.30;;;;;;;30.61;37.38;98820.05;1838317;77;33077;-42
2022/06/26 00:29:16;;;;;;;0.50;0.50;;;;;;;30.59;37.42;98818.15;1815215;77;28186;-42
2022/06/26 00:32:06;;;;;;;0.40;0.40;;;;;;;30.60;37.41;98819.78;1832693;77;28241;-42
2022/06/26 00:34:54;;;;;;;0.40;0.40;;;;;;;30.60;37.42;98818.95;1833720;77;28239;-44
2022/06/26 00:37:43;;;;;;;0.35;0.35;;;;;;;30.59;37.41;98824.25;1833946;77;28246;-44
2022/06/26 00:40:32;;;;;;;0.40;0.40;;;;;;;30.58;37.42;98819.81;1832153;77;28178;-44
2022/06/26 00:43:20;;;;;;;0.40;0.40;;;;;;;30.59;37.39;98811.77;1833831;77;28231;-42
2022/06/26 00:46:08;;;;;;;0.40;0.40;;;;;;;30.57;37.42;98803.73;1831994;77;28286;-45
2022/06/26 00:48:58;;;;;;;0.50;0.50;;;;;;;30.59;37.40;98808.45;1812644;78;28231;-42
2022/06/26 00:51:49;;;;;;;0.30;0.30;;;;;;;30.58;37.39;98804.02;1837548;77;28264;-45
2022/06/26 00:54:39;;;;;;;0.40;0.40;;;;;;;30.58;37.37;98808.17;1789841;79;28405;-43
2022/06/26 00:57:28;;;;;;;0.50;0.40;;;;;;;30.59;37.40;98819.53;1776583;79;28406;-45
2022/06/26 01:00:20;;;;;;;0.35;0.35;;;;;;;30.60;37.37;98816.17;1810229;78;28311;-42
2022/06/26 01:03:07;;;;;;;0.50;0.50;;;;;;;30.59;37.39;98802.90;1793510;78;28408;-44
2022/06/26 01:05:56;;;;;;;0.60;0.60;;;;;;;30.60;37.35;98798.98;1837570;77;28214;-43
2022/06/26 01:08:46;;;;;;;0.50;0.43;;;;;;;30.59;37.36;98796.53;1828151;77;28201;-44
2022/06/26 01:11:34;;;;;;;0.40;0.40;;;;;;;30.59;37.40;98786.83;1812396;78;28337;-42
2022/06/26 01:14:23;;;;;;;0.50;0.50;;;;;;;30.58;37.38;98797.08;1790930;79;28317;-42
2022/06/26 01:17:13;;;;;;;0.50;0.50;;;;;;;30.59;37.38;98808.45;1820779;77;28338;-42
2022/06/26 01:20:04;;;;;;;0.40;0.40;;;;;;;30.58;37.38;98800.41;1828140;77;28322;-44
2022/06/26 01:23:02;;;;;;;0.50;0.50;;;;;;;30.60;37.38;98798.98;1794600;77;28236;-42
2022/06/26 01:25:51;;;;;;;0.45;0.45;;;;;;;30.58;37.39;98801.24;1836558;77;28244;-44
2022/06/26 01:28:40;;;;;;;0.37;0.37;;;;;;;30.57;37.37;98796.02;1781341;78;28396;-45
2022/06/26 01:31:36;;;;;;;0.40;0.40;;;;;;;30.57;37.38;98794.04;1783519;78;28395;-46
2022/06/26 01:34:22;;;;;;;0.40;0.40;;;;;;;30.57;37.37;98788.49;1774291;78;28733;-42
2022/06/26 01:37:12;;;;;;;0.50;0.50;;;;;;;30.58;37.39;98785.16;1832318;77;28174;-42
2022/06/26 01:40:00;;;;;;;0.35;0.35;;;;;;;30.58;37.38;98783.22;1832531;77;28247;-46
2022/06/26 01:42:49;;;;;;;0.50;0.50;;;;;;;30.57;37.36;98772.45;1832864;77;28352;-44
2022/06/26 01:45:46;;;;;;;0.50;0.50;;;;;;;30.58;37.36;98767.14;1812129;78;28256;-44
2022/06/26 01:48:37;;;;;;;0.40;0.40;;;;;;;30.56;37.34;98764.69;1815996;77;28507;-43
2022/06/26 01:51:27;;;;;;;0.40;0.40;;;;;;;30.56;37.40;98759.70;1813686;77;28338;-42
2022/06/26 01:54:17;;;;;;;0.40;0.40;;;;;;;30.55;37.39;98763.62;1828872;77;28680;-44
2022/06/26 01:57:06;;;;;;;0.47;0.47;;;;;;;30.54;37.39;98767.50;1807557;76;28475;-43
2022/06/26 01:59:56;;;;;;;0.40;0.40;;;;;;;30.56;37.38;98772.17;1816720;77;28393;-43
2022/06/26 02:02:46;;;;;;;0.40;0.40;;;;;;;30.55;37.39;98785.80;1773883;80;28321;-43
2022/06/26 02:05:36;;;;;;;0.40;0.40;;;;;;;30.56;37.35;98785.48;1786367;79;28397;-47
2022/06/26 02:08:24;;;;;;;0.40;0.40;;;;;;;30.56;37.34;98791.58;1791647;79;28237;-42
2022/06/26 02:14:21;;;;;;;0.45;0.45;;;;;;;30.56;37.38;98788.81;1787293;79;28758;-43
2022/06/26 02:17:12;;;;;;;0.40;0.40;;;;;;;30.51;37.46;98798.59;1763616;79;28391;-45
2022/06/26 02:20:00;;;;;;;0.40;0.40;;;;;;;30.52;37.43;98799.70;1784522;78;28172;-43
2022/06/26 02:22:50;;;;;;;0.50;0.50;;;;;;;30.55;37.42;98799.66;1753034;80;28461;-44
2022/06/26 02:25:39;;;;;;;0.42;0.42;;;;;;;30.56;37.39;98798.52;1781540;79;31364;-45
2022/06/26 02:28:28;;;;;;;0.50;0.50;;;;;;;30.55;37.41;98807.97;1794770;79;28345;-43
2022/06/26 02:31:18;;;;;;;0.40;0.40;;;;;;;30.55;37.40;98794.91;1788488;78;28346;-44
2022/06/26 02:34:08;;;;;;;0.50;0.50;;;;;;;30.54;37.41;98778.03;1785529;79;28363;-42
2022/06/26 02:36:57;;;;;;;0.40;0.40;;;;;;;30.56;37.41;98779.11;1820099;78;28222;-44
2022/06/26 02:39:46;;;;;;;0.40;0.40;;;;;;;30.56;37.35;98779.11;1786168;78;28274;-44
2022/06/26 02:42:34;;;;;;;0.40;0.40;;;;;;;30.55;37.39;98792.73;1833107;77;28139;-44
2022/06/26 02:45:23;;;;;;;0.40;0.40;;;;;;;30.55;37.35;98796.89;1803561;78;28160;-42
2022/06/26 02:48:13;;;;;;;0.50;0.50;;;;;;;30.56;37.39;98791.58;1813988;77;28241;-46
2022/06/26 02:51:02;;;;;;;0.40;0.40;;;;;;;30.56;37.35;98800.73;1823930;76;28283;-42
2022/06/26 02:53:51;;;;;;;0.50;0.50;;;;;;;30.56;37.37;98797.95;1820045;77;28213;-43
2022/06/26 02:56:39;;;;;;;0.40;0.40;;;;;;;30.55;37.39;98789.37;1819032;77;28391;-43
2022/06/26 02:59:27;;;;;;;0.57;0.57;;;;;;;30.56;37.36;98786.03;1818021;77;28335;-42
2022/06/26 03:02:16;;;;;;;0.40;0.40;;;;;;;30.58;37.37;98793.48;1814848;78;28206;-43
2022/06/26 03:05:07;;;;;;;0.45;0.45;;;;;;;30.57;37.36;98807.10;1822096;77;28398;-42
2022/06/26 03:07:56;;;;;;;0.40;0.40;;;;;;;30.56;37.38;98810.98;1843243;77;28282;-44
2022/06/26 03:10:45;;;;;;;0.40;0.40;;;;;;;30.56;37.39;98820.69;1788491;79;28227;-44
2022/06/26 03:13:33;;;;;;;0.45;0.45;;;;;;;30.56;37.36;98827.62;1838603;77;28229;-47
2022/06/26 03:16:21;;;;;;;0.70;0.70;;;;;;;30.58;37.36;98835.06;1812171;78;28287;-43
2022/06/26 03:19:10;;;;;;;0.30;0.30;;;;;;;30.55;37.39;98860.64;1834025;77;28303;-42
2022/06/26 03:21:59;;;;;;;0.40;0.40;;;;;;;30.54;37.41;98851.50;1836248;77;28225;-42
2022/06/26 03:24:47;;;;;;;0.50;0.50;;;;;;;30.54;37.40;98828.48;1834831;77;28146;-44
2022/06/26 03:27:39;;;;;;;0.60;0.50;;;;;;;30.54;37.38;98833.48;1803145;77;28356;-46
2022/06/26 03:30:28;;;;;;;0.60;0.60;;;;;;;30.56;37.39;98835.94;1832118;77;28346;-42
2022/06/26 03:33:17;;;;;;;0.35;0.35;;;;;;;30.56;37.36;98845.64;1835688;77;28193;-43
2022/06/26 03:36:12;;;;;;;0.40;0.40;;;;;;;30.56;37.33;98864.48;1818326;77;28324;-43
2022/06/26 03:38:57;;;;;;;0.50;0.50;;;;;;;30.56;37.39;98874.75;1796312;77;28251;-43
2022/06/26 03:42:00;;;;;;;0.50;0.50;;;;;;;30.55;37.40;98885.00;1834265;77;28275;-47
2022/06/26 03:44:38;;;;;;;0.40;0.40;;;;;;;30.54;37.57;98885.31;1822654;77;28231;-41
2022/06/26 03:47:27;;;;;;;0.50;0.50;;;;;;;30.54;37.57;98885.31;1827632;77;28127;-43
2022/06/26 03:50:17;;;;;;;0.50;0.50;;;;;;;30.53;37.44;98896.13;1809847;78;28348;-45
2022/06/26 03:53:06;;;;;;;0.45;0.45;;;;;;;30.56;37.43;98894.16;1831346;77;28229;-42
2022/06/26 03:55:55;;;;;;;0.40;0.40;;;;;;;30.54;37.44;98905.55;1832863;77;28365;-44
2022/06/26 03:58:44;;;;;;;0.40;0.40;;;;;;;30.56;37.42;98906.62;1837131;77;28211;-43
2022/06/26 04:01:34;;;;;;;0.55;0.55;;;;;;;30.54;37.41;98901.95;1789872;78;28314;-45
2022/06/26 04:04:22;;;;;;;0.37;0.37;;;;;;;30.54;37.40;98908.88;1781831;79;28332;-42
2022/06/26 04:07:12;;;;;;;0.42;0.42;;;;;;;30.54;37.40;98918.03;1816205;78;28334;-42
2022/06/26 04:10:02;;;;;;;0.40;0.40;;;;;;;30.55;37.40;98909.95;1808393;78;28377;-43
2022/06/26 04:12:51;;;;;;;0.40;0.40;;;;;;;30.55;37.35;98908.56;1838878;77;28223;-43
2022/06/26 04:15:41;;;;;;;0.50;0.50;;;;;;;30.54;37.38;98901.39;1827115;78;28244;-45
2022/06/26 04:18:30;;;;;;;0.40;0.40;;;;;;;30.52;37.42;98904.20;1824469;77;28158;-42
2022/06/26 04:21:18;;;;;;;0.47;0.47;;;;;;;30.52;37.37;98895.89;1798932;78;28275;-43
2022/06/26 04:24:10;;;;;;;0.40;0.40;;;;;;;30.52;37.39;98884.80;1821853;77;28179;-43
2022/06/26 04:26:59;;;;;;;0.40;0.40;;;;;;;30.50;37.39;98873.99;1835086;77;28260;-43
2022/06/26 04:29:48;;;;;;;0.50;0.50;;;;;;;30.50;37.42;98875.38;1835896;77;28205;-44
2022/06/26 04:32:40;;;;;;;0.50;0.50;;;;;;;30.50;37.42;98898.14;1834323;77;28280;-45
2022/06/26 04:35:29;;;;;;;0.40;0.40;;;;;;;30.54;37.33;98904.72;1838985;77;28239;-43
2022/06/26 04:38:18;;;;;;;0.60;0.60;;;;;;;30.53;37.36;98909.99;1838061;77;28189;-44
2022/06/26 04:44:13;;;;;;;0.50;0.50;;;;;;;30.53;37.33;98920.53;1810270;78;28091;-43
2022/06/26 04:47:03;;;;;;;0.40;0.40;;;;;;;30.50;37.38;98913.39;1823139;77;28268;-47
2022/06/26 04:49:53;;;;;;;0.80;0.53;;;;;;;30.50;37.41;98926.66;1841875;77;28197;-44
2022/06/26 04:52:50;;;;;;;0.40;0.40;;;;;;;30.50;37.39;98916.16;1833803;77;28251;-42
2022/06/26 04:55:39;;;;;;;0.47;0.47;;;;;;;30.49;37.39;98918.10;1836819;77;28186;-44
2022/06/26 04:58:27;;;;;;;0.47;0.47;;;;;;;30.47;37.44;98914.81;1798248;77;28091;-43
2022/06/26 05:01:17;;;;;;;0.40;0.30;;;;;;;30.48;37.44;98907.33;1831922;77;28154;-43
2022/06/26 05:04:24;;;;;;;0.47;0.47;;;;;;;30.48;37.43;98915.05;1834049;77;28790;-43
2022/06/26 05:07:31;;;;;;;0.40;0.40;;;;;;;30.48;37.41;98905.94;1832546;77;28304;-43
2022/06/26 05:10:19;;;;;;;0.42;0.42;;;;;;;30.45;37.43;98907.92;1833211;77;28230;-45
2022/06/26 05:13:15;;;;;;;0.37;0.37;;;;;;;30.49;37.40;98902.02;1811771;78;28299;-46
2022/06/26 05:16:09;;;;;;;0.50;0.50;;;;;;;30.47;37.42;98894.58;1833483;77;28151;-47
2022/06/26 05:18:57;;;;;;;0.40;0.40;;;;;;;30.46;37.47;98896.52;1779982;79;28515;-44
2022/06/26 05:21:46;;;;;;;0.40;0.40;;;;;;;30.49;37.42;98903.41;1825950;77;28268;-45
2022/06/26 05:24:35;;;;;;;0.40;0.40;;;;;;;30.50;37.39;98900.91;1800506;77;28083;-46
2022/06/26 05:27:23;;;;;;;0.30;0.30;;;;;;;30.54;37.36;98895.84;1822283;77;28763;-43
2022/06/26 05:30:13;;;;;;;0.43;0.43;;;;;;;30.50;37.38;98895.37;1837856;77;28155;-43
2022/06/26 05:33:04;;;;;;;0.30;0.30;;;;;;;30.52;37.35;98895.33;1829070;76;28246;-47
2022/06/26 05:35:53;;;;;;;0.40;0.40;;;;;;;30.52;37.34;98896.72;1799906;79;28394;-45
2022/06/26 05:38:42;;;;;;;0.45;0.45;;;;;;;30.52;37.34;98908.36;1836376;77;28228;-47
2022/06/26 05:41:30;;;;;;;0.47;0.47;;;;;;;30.52;37.35;98896.72;1839668;77;28150;-44
2022/06/26 05:44:19;;;;;;;0.50;0.50;;;;;;;30.53;37.38;98898.91;1835052;77;28288;-45
2022/06/26 05:47:08;;;;;;;0.33;0.33;;;;;;;30.51;37.39;98899.22;1799996;79;28844;-44
2022/06/26 05:50:05;;;;;;;0.45;0.45;;;;;;;30.51;37.39;98896.45;1826281;77;28313;-43
2022/06/26 05:53:13;;;;;;;0.55;0.40;;;;;;;30.51;37.39;98891.45;1794893;78;28309;-42
2022/06/26 05:56:03;;;;;;;0.35;0.35;;;;;;;30.50;37.42;98894.78;1833822;77;28203;-42
2022/06/26 05:58:59;;;;;;;0.40;0.40;;;;;;;30.50;37.41;98892.02;1781531;78;28283;-43
2022/06/26 06:01:52;;;;;;;0.37;0.37;;;;;;;30.50;37.42;98896.17;1791099;78;28177;-44
2022/06/26 06:04:42;;;;;;;0.40;0.40;;;;;;;30.52;37.35;98888.41;1831609;77;28312;-47
2022/06/26 06:07:31;;;;;;;0.40;0.40;;;;;;;30.52;37.38;98886.19;1832289;77;28238;-43
2022/06/26 06:10:20;;;;;;;0.50;0.50;;;;;;;30.53;37.40;98886.43;1838137;77;28182;-45
2022/06/26 06:13:10;;;;;;;0.40;0.40;;;;;;;30.56;37.35;98882.51;1814306;77;28154;-43
2022/06/26 06:15:59;;;;;;;0.40;0.40;;;;;;;30.54;37.35;98882.55;1827510;76;28179;-43
2022/06/26 06:18:47;;;;;;;0.50;0.50;;;;;;;30.54;37.34;98886.70;1831476;77;28352;-43
2022/06/26 06:21:38;;;;;;;0.40;0.40;;;;;;;30.53;37.38;98891.42;1822471;76;28232;-43
2022/06/26 06:24:26;;;;;;;0.30;0.30;;;;;;;30.55;37.32;98901.64;1803970;77;28273;-45
2022/06/26 06:27:16;;;;;;;0.40;0.40;;;;;;;30.54;37.33;98897.80;1839774;77;28182;-42
2022/06/26 06:30:08;;;;;;;0.40;0.40;;;;;;;30.54;37.37;98897.80;1834556;77;28190;-45
2022/06/26 06:32:57;;;;;;;0.50;0.50;;;;;;;30.53;37.37;98891.42;1836574;77;28177;-44
2022/06/26 06:35:55;;;;;;;0.60;0.50;;;;;;;30.54;37.33;98879.22;1812750;78;28235;-46
2022/06/26 06:38:45;;;;;;;0.40;0.40;;;;;;;30.53;37.37;98870.63;1837526;77;28312;-46
2022/06/26 06:41:34;;;;;;;0.40;0.40;;;;;;;30.52;37.36;98875.09;1825923;77;28067;-44
2022/06/26 06:44:24;;;;;;;0.50;0.50;;;;;;;30.57;37.31;98872.25;1828650;77;28244;-42
2022/06/26 06:47:17;;;;;;;0.40;0.40;;;;;;;30.57;37.31;98872.25;1813520;77;28164;-42
2022/06/26 06:50:09;;;;;;;0.30;0.30;;;;;;;30.57;37.32;98872.25;1840440;77;28319;-42
2022/06/26 06:53:00;;;;;;;0.40;0.40;;;;;;;30.56;37.33;98865.87;1790235;78;28244;-41
2022/06/26 06:55:49;;;;;;;0.47;0.47;;;;;;;30.57;37.30;98870.86;1827509;77;28186;-41
2022/06/26 06:58:37;;;;;;;0.40;0.40;;;;;;;30.55;37.31;98866.19;1813059;78;28231;-45
2022/06/26 07:01:27;;;;;;;0.40;0.40;;;;;;;30.57;37.27;98864.73;1816104;77;28279;-43
2022/06/26 07:04:16;;;;;;;0.40;0.40;;;;;;;30.56;37.31;98868.64;1813612;76;33399;-41
2022/06/26 07:07:05;;;;;;;0.40;0.40;;;;;;;30.58;37.24;98864.17;1841536;77;28218;-44
2022/06/26 07:09:53;;;;;;;0.50;0.50;;;;;;;30.58;37.26;98865.00;1793692;79;28410;-43
2022/06/26 07:12:45;;;;;;;0.40;0.40;;;;;;;30.60;37.27;98863.30;1828021;77;28157;-46
2022/06/26 07:15:35;;;;;;;0.40;0.40;;;;;;;30.59;37.23;98856.13;1821987;77;28228;-42
2022/06/26 07:18:24;;;;;;;0.40;0.40;;;;;;;30.59;37.23;98862.51;1834825;77;28309;-42
2022/06/26 07:21:14;;;;;;;0.40;0.40;;;;;;;30.58;37.29;98855.86;1796222;78;28360;-44
2022/06/26 07:24:03;;;;;;;0.35;0.35;;;;;;;30.55;37.25;98849.55;1822568;77;28128;-43
2022/06/26 07:26:57;;;;;;;0.35;0.35;;;;;;;30.57;37.24;98855.61;1818994;77;28271;-43
2022/06/26 07:29:46;;;;;;;0.40;0.40;;;;;;;30.58;37.29;98850.31;1842995;77;28220;-43
2022/06/26 07:32:34;;;;;;;0.30;0.30;;;;;;;30.59;37.25;98849.20;1807628;77;28420;-43
2022/06/26 07:35:22;;;;;;;0.90;0.40;;;;;;;30.59;37.23;98845.88;1782429;77;28340;-43
2022/06/26 07:38:12;;;;;;;0.40;0.40;;;;;;;30.59;37.22;98843.09;1788583;77;28381;-42
2022/06/26 07:41:00;;;;;;;0.40;0.40;;;;;;;30.61;37.24;98845.00;1787109;79;28385;-44
2022/06/26 07:43:49;;;;;;;0.40;0.40;;;;;;;30.62;37.20;98837.52;1800209;79;28410;-41
2022/06/26 07:46:39;;;;;;;0.50;0.50;;;;;;;30.61;37.19;98831.70;1826569;77;28221;-43
2022/06/26 07:49:29;;;;;;;0.40;0.40;;;;;;;30.62;37.21;98832.77;1833143;77;28324;-45
2022/06/26 07:52:19;;;;;;;0.50;0.50;;;;;;;30.63;37.18;98835.81;1821973;77;28213;-42
2022/06/26 07:55:09;;;;;;;0.40;0.40;;;;;;;30.61;37.22;98835.30;1829122;77;28127;-45
2022/06/26 07:57:57;;;;;;;0.40;0.40;;;;;;;30.63;37.17;98829.44;1830989;77;28231;-42
2022/06/26 08:00:45;;;;;;;0.40;0.40;;;;;;;30.64;37.16;98825.55;1835197;77;28310;-44
2022/06/26 08:03:34;;;;;;;0.30;0.30;;;;;;;30.64;37.15;98818.63;1829920;77;28704;-42
2022/06/26 08:06:23;;;;;;;0.50;0.50;;;;;;;30.64;37.14;98818.03;1839155;77;28242;-45
2022/06/26 08:09:11;;;;;;;0.35;0.35;;;;;;;30.65;37.15;98816.09;1838862;77;33025;-43
2022/06/26 08:11:59;;;;;;;0.30;0.30;;;;;;;30.61;37.16;98813.12;1835575;77;28154;-44
2022/06/26 08:14:48;;;;;;;0.40;0.40;;;;;;;30.65;37.15;98809.16;1804872;78;28227;-42
2022/06/26 08:17:36;;;;;;;0.40;0.40;;;;;;;30.64;37.13;98808.92;1789840;78;28282;-44
2022/06/26 08:20:25;;;;;;;0.40;0.40;;;;;;;30.62;37.17;98806.43;1796999;78;28359;-42
2022/06/26 08:23:14;;;;;;;0.30;0.30;;;;;;;30.64;37.16;98808.92;1791593;79;28306;-43
2022/06/26 08:26:07;;;;;;;0.40;0.40;;;;;;;30.64;37.17;98800.59;1810786;78;28335;-42
2022/06/26 08:28:55;;;;;;;0.40;0.40;;;;;;;30.62;37.18;98801.47;1829442;77;28242;-43
2022/06/26 08:31:44;;;;;;;0.50;0.50;;;;;;;30.61;37.21;98797.04;1798698;78;28340;-43
2022/06/26 08:34:34;;;;;;;0.30;0.30;;;;;;;30.61;37.20;98793.71;1826052;78;31093;-42
2022/06/26 08:37:22;;;;;;;0.40;0.40;;;;;;;30.65;37.14;98795.30;1802726;78;28885;-44
2022/06/26 08:40:11;;;;;;;0.30;0.30;;;;;;;30.65;37.14;98793.91;1835719;77;28294;-42
2022/06/26 08:43:02;;;;;;;0.33;0.33;;;;;;;30.68;37.10;98800.23;1826476;77;28294;-43
2022/06/26 08:45:56;;;;;;;0.40;0.40;;;;;;;30.65;37.13;98791.14;1816494;78;28020;-41
2022/06/26 08:48:47;;;;;;;0.53;0.53;;;;;;;30.69;37.06;98792.20;1810794;78;28282;-42
2022/06/26 08:51:37;;;;;;;0.30;0.30;;;;;;;30.66;37.11;98788.08;1788727;78;28383;-42
2022/06/26 08:54:29;;;;;;;0.30;0.30;;;;;;;30.67;37.12;98779.17;1806603;77;28795;-42
2022/06/26 08:57:18;;;;;;;0.40;0.40;;;;;;;30.65;37.12;98772.56;1837183;76;28169;-42
2022/06/26 09:00:08;;;;;;;0.42;0.42;;;;;;;30.67;37.11;98768.91;1810655;78;28278;-42
2022/06/26 09:02:56;;;;;;;0.30;0.30;;;;;;;30.68;37.10;98763.64;1823582;78;28280;-41
2022/06/26 09:05:45;;;;;;;0.40;0.40;;;;;;;30.69;37.09;98769.42;1831259;77;28173;-44
2022/06/26 09:08:36;;;;;;;0.42;0.42;;;;;;;30.65;37.14;98762.02;1828108;77;28099;-43
2022/06/26 09:11:26;;;;;;;0.40;0.40;;;;;;;30.64;37.17;98765.36;1754122;80;28394;-43
2022/06/26 09:14:15;;;;;;;0.30;0.30;;;;;;;30.67;37.11;98766.14;1785635;78;28416;-43
2022/06/26 09:17:05;;;;;;;0.50;0.50;;;;;;;30.63;37.14;98765.11;1792841;78;28248;-43
2022/06/26 09:19:55;;;;;;;0.40;0.40;;;;;;;30.69;37.11;98761.70;1759359;80;28512;-42
2022/06/26 09:22:55;;;;;;;0.45;0.45;;;;;;;30.69;37.08;98765.27;1796411;78;28817;-42
2022/06/26 09:25:47;;;;;;;0.40;0.40;;;;;;;30.68;37.10;98757.27;1779737;78;28318;-43
2022/06/26 09:28:35;;;;;;;0.50;0.40;;;;;;;30.69;37.11;98752.79;1827743;77;28298;-44
2022/06/26 09:31:24;;;;;;;0.40;0.40;;;;;;;30.69;37.05;98754.17;1806297;77;28141;-44
2022/06/26 09:34:24;;;;;;;0.47;0.47;;;;;;;30.69;37.05;98751.41;1791379;78;28247;-43
2022/06/26 09:37:13;;;;;;;0.40;0.40;;;;;;;30.68;37.05;98745.62;1814768;77;28506;-43
2022/06/26 09:40:05;;;;;;;0.40;0.40;;;;;;;30.68;37.10;98748.95;1829053;77;28313;-43
2022/06/26 09:42:54;;;;;;;0.50;0.50;;;;;;;30.66;37.08;98740.12;1825328;77;28298;-42
2022/06/26 09:45:42;;;;;;;0.30;0.30;;;;;;;30.67;37.07;98739.80;1813023;78;28239;-42
2022/06/26 09:48:32;;;;;;;0.40;0.40;;;;;;;30.67;37.08;98741.19;1791540;77;28414;-45
2022/06/26 09:51:23;;;;;;;0.50;0.50;;;;;;;30.69;37.06;98734.77;1797265;79;28283;-45
2022/06/26 09:54:11;;;;;;;0.50;0.50;;;;;;;30.68;37.07;98736.47;1803477;77;28169;-43
2022/06/26 09:57:00;;;;;;;0.60;0.60;;;;;;;30.69;37.05;98724.27;1818026;77;28263;-42
2022/06/26 09:59:48;;;;;;;0.20;0.20;;;;;;;30.68;37.07;98717.06;1791093;79;28309;-42
2022/06/26 10:08:53;;;;;;;0.45;0.45;;;;;;;30.66;37.11;98707.67;1823291;77;28222;-43
2022/06/26 10:11:42;;;;;;;0.50;0.50;;;;;;;30.63;37.13;98692.20;1828759;77;28151;-45
2022/06/26 10:14:40;;;;;;;0.35;0.35;;;;;;;30.64;37.10;98693.27;1835234;77;28264;-45
2022/06/26 10:17:43;;;;;;;0.40;0.40;;;;;;;30.65;37.09;98689.94;1817593;77;28332;-43
2022/06/26 10:20:32;;;;;;;0.40;0.40;;;;;;;30.66;37.08;98692.42;1833217;77;28222;-47
2022/06/26 10:23:38;;;;;;;0.53;0.53;;;;;;;30.64;37.14;98686.92;1824259;77;28175;-43
2022/06/26 10:26:26;;;;;;;0.40;0.40;;;;;;;30.67;37.10;98690.45;1829632;77;28407;-44
2022/06/26 10:29:15;;;;;;;0.40;0.40;;;;;;;30.65;37.12;98685.78;1795151;78;28279;-44
2022/06/26 10:32:04;;;;;;;0.50;0.50;;;;;;;30.68;37.06;98681.02;1789474;78;28438;-43
2022/06/26 10:35:00;;;;;;;0.50;0.50;;;;;;;30.68;37.05;98676.86;1828207;77;28190;-43
2022/06/26 10:37:51;;;;;;;0.45;0.45;;;;;;;30.69;37.00;98675.74;1815748;78;30206;-43
2022/06/26 10:43:52;;;;;;;0.50;0.50;;;;;;;30.71;37.00;98687.34;1806766;77;28143;-43
2022/06/26 10:46:48;;;;;;;0.40;0.40;;;;;;;30.68;37.02;98682.41;1835741;77;28143;-43
2022/06/26 10:49:40;;;;;;;3.42;0.60;;;;;;;30.68;37.03;98665.77;1840541;77;28147;-43
2022/06/26 10:52:33;;;;;;;0.50;0.50;;;;;;;30.67;37.06;98665.50;1821336;77;28173;-45
2022/06/26 10:55:22;;;;;;;0.55;0.55;;;;;;;30.60;37.03;98644.30;1807647;78;28227;-42
2022/06/26 10:58:20;;;;;;;0.50;0.50;;;;;;;30.66;37.03;98641.14;1833741;77;28355;-42
2022/06/26 11:01:10;;;;;;;0.70;0.40;;;;;;;30.69;37.01;98666.84;1795270;78;28417;-42
2022/06/26 11:04:02;;;;;;;0.40;0.40;;;;;;;30.67;37.02;98646.92;1826083;77;28412;-44
2022/06/26 11:06:53;;;;;;;0.60;0.60;;;;;;;30.67;37.04;98653.84;1835081;77;28194;-44
2022/06/26 11:09:41;;;;;;;0.62;0.50;;;;;;;30.68;37.03;98642.20;1837094;77;28279;-43
2022/06/26 11:12:34;;;;;;;0.60;0.60;;;;;;;30.70;36.96;98635.78;1837136;77;28246;-42
2022/06/26 11:15:34;;;;;;;0.60;0.60;;;;;;;30.70;36.98;98630.23;1838631;77;28154;-44
2022/06/26 11:18:23;;;;;;;0.60;0.60;;;;;;;30.68;36.97;98641.64;1836541;77;28252;-42
2022/06/26 11:21:11;;;;;;;0.60;0.60;;;;;;;30.66;37.02;98622.28;1796160;77;28692;-47
2022/06/26 11:24:00;;;;;;;0.70;0.70;;;;;;;30.68;37.00;98632.50;1840442;77;28154;-44
2022/06/26 11:26:48;;;;;;;0.50;0.50;;;;;;;30.70;36.91;98620.53;1826081;77;28295;-42
2022/06/26 11:29:38;;;;;;;0.70;0.60;;;;;;;30.71;36.93;98615.25;1787689;79;28446;-45
2022/06/26 11:32:27;;;;;;;0.53;0.53;;;;;;;30.70;36.93;98617.76;1822060;78;28266;-43
2022/06/26 11:35:18;;;;;;;0.50;0.50;;;;;;;30.62;36.92;98595.73;1836385;77;28328;-46
2022/06/26 11:38:16;;;;;;;0.47;0.47;;;;;;;30.71;36.91;98613.87;1827312;78;28341;-43
2022/06/26 11:41:09;;;;;;;0.60;0.60;;;;;;;30.70;36.94;98612.21;1835807;77;28288;-44
2022/06/26 11:44:00;;;;;;;0.50;0.50;;;;;;;30.70;36.93;98610.83;1835111;77;28276;-45
2022/06/26 11:46:49;;;;;;;0.60;0.60;;;;;;;30.71;36.91;98595.25;1836962;77;28224;-43
2022/06/26 11:49:39;;;;;;;0.60;0.60;;;;;;;30.70;36.93;98596.96;1836860;77;28158;-43
2022/06/26 11:52:27;;;;;;;0.70;0.70;;;;;;;30.69;36.93;98589.80;1816768;77;28305;-43
2022/06/26 11:55:16;;;;;;;0.70;0.70;;;;;;;30.70;36.93;98588.09;1812218;78;28352;-44
2022/06/26 11:58:04;;;;;;;0.62;0.62;;;;;;;30.71;36.91;98586.14;1832831;77;28267;-46
2022/06/26 12:01:04;;;;;;;0.70;0.70;;;;;;;30.65;36.89;98570.73;1833001;77;28217;-43
2022/06/26 12:03:54;;;;;;;0.62;0.62;;;;;;;30.68;36.94;98577.88;1841192;77;28216;-46
2022/06/26 12:06:44;;;;;;;0.60;0.60;;;;;;;30.69;36.97;98584.25;1811963;78;28849;-43
2022/06/26 12:09:33;;;;;;;0.60;0.60;;;;;;;30.71;36.91;98573.66;1832804;77;28335;-43
2022/06/26 12:12:23;;;;;;;0.50;0.50;;;;;;;30.72;36.90;98561.42;1833769;77;28348;-43
2022/06/26 12:15:14;;;;;;;0.60;0.60;;;;;;;30.74;36.92;98566.09;1833478;77;28310;-44
2022/06/26 12:18:06;;;;;;;0.60;0.60;;;;;;;30.74;36.93;98556.38;1812575;78;28219;-43
2022/06/26 12:20:55;;;;;;;0.60;0.60;;;;;;;30.72;36.92;98567.80;1790733;78;28430;-46
2022/06/26 12:23:45;;;;;;;0.70;0.70;;;;;;;30.74;36.86;98564.70;1822517;78;28104;-45
2022/06/26 12:26:38;;;;;;;0.60;0.60;;;;;;;30.73;36.93;98552.81;1826081;77;28225;-43
2022/06/26 12:29:26;;;;;;;0.62;0.62;;;;;;;30.73;36.90;98550.60;1835129;77;28206;-42
2022/06/26 12:32:15;;;;;;;0.60;0.60;;;;;;;30.70;36.89;98542.89;1833220;77;28143;-45
2022/06/26 12:35:03;;;;;;;0.53;0.53;;;;;;;30.76;36.85;98536.92;1833805;77;28220;-42
2022/06/26 12:37:52;;;;;;;0.60;0.60;;;;;;;30.75;36.87;98542.23;1833702;76;28742;-45
2022/06/26 12:40:41;;;;;;;0.50;0.50;;;;;;;30.76;36.87;98534.70;1745895;81;28334;-43
2022/06/26 12:43:29;;;;;;;0.70;0.70;;;;;;;30.75;36.88;98534.47;1818452;77;30342;-43
2022/06/26 12:46:20;;;;;;;0.60;0.60;;;;;;;30.74;36.86;98522.55;1818899;78;28149;-43
2022/06/26 12:49:08;;;;;;;0.70;0.70;;;;;;;30.77;36.86;98522.50;1826044;77;28214;-42
2022/06/26 12:51:56;;;;;;;0.70;0.70;;;;;;;30.75;36.89;98513.67;1811237;78;28720;-42
2022/06/26 12:54:45;;;;;;;0.68;0.68;;;;;;;30.78;36.86;98510.28;1836701;76;28309;-47
2022/06/26 12:57:33;;;;;;;0.62;0.62;;;;;;;30.74;36.89;98511.46;1827874;76;28731;-44
2022/06/26 13:00:22;;;;;;;0.80;0.80;;;;;;;30.74;36.88;98503.14;1834537;77;28160;-42
2022/06/26 13:03:10;;;;;;;0.70;0.70;;;;;;;30.70;36.94;98511.02;1834404;77;28134;-43
2022/06/26 13:05:59;;;;;;;0.55;0.55;;;;;;;30.72;36.94;98497.09;1833046;76;28238;-44
2022/06/26 13:08:48;;;;;;;0.70;0.70;;;;;;;30.71;36.94;98500.19;1784686;78;28430;-44
2022/06/26 13:11:37;;;;;;;0.60;0.60;;;;;;;30.72;36.93;98493.49;1815108;77;28189;-44
2022/06/26 13:14:26;;;;;;;0.60;0.60;;;;;;;30.71;36.93;98486.33;1832904;76;28154;-42
2022/06/26 13:17:14;;;;;;;0.70;0.70;;;;;;;30.66;37.00;98491.42;1832917;77;28271;-42
2022/06/26 13:20:03;;;;;;;0.60;0.60;;;;;;;30.69;36.97;98478.89;1841828;77;38520;-44
2022/06/26 13:22:51;;;;;;;0.80;0.80;;;;;;;30.70;36.95;98480.52;1817711;77;28208;-42
2022/06/26 13:25:40;;;;;;;1.37;0.90;;;;;;;30.69;36.96;98473.34;1841053;77;28239;-43
2022/06/26 13:28:29;;;;;;;0.60;0.60;;;;;;;30.71;36.95;98489.09;1839375;77;28358;-42
2022/06/26 13:31:18;;;;;;;0.80;0.80;;;;;;;30.74;36.93;98495.38;1828370;77;28086;-45
2022/06/26 13:34:07;;;;;;;0.78;0.78;;;;;;;30.72;36.94;98468.54;1797936;78;28325;-42
2022/06/26 13:36:55;;;;;;;0.70;0.70;;;;;;;30.72;36.98;98477.69;1828226;77;28331;-45